Time;durP1;ratioP1;P1;durP2;ratioP2;P2;SDS_P1;SDS_P2;PMS_P1;PMS_P2;Temp;Humidity;BMP_temperature;BMP_pressure;BME280_temperature;BME280_humidity;BME280_pressure;Samples;Min_cycle;Max_cycle;Signal;HPM_P1;HPM_P2
2023/10/08 00:00:53;;;;;;;7.32;2.38;;;16.40;99.90;;;;;;5033121;28;20070;-63
2023/10/08 00:03:22;;;;;;;6.35;2.08;;;16.20;99.90;;;;;;5033967;28;20500;-63
2023/10/08 00:05:51;;;;;;;4.55;1.90;;;15.90;99.90;;;;;;5033474;28;20048;-64
2023/10/08 00:08:17;;;;;;;4.78;1.90;;;15.80;99.90;;;;;;5033524;28;20132;-64
2023/10/08 00:10:44;;;;;;;4.15;1.48;;;15.60;99.90;;;;;;5021276;28;20049;-63
2023/10/08 00:13:15;;;;;;;4.13;1.35;;;15.50;99.90;;;;;;5103655;28;20050;-63
2023/10/08 00:15:52;;;;;;;3.53;1.15;;;15.40;99.90;;;;;;5120138;27;20446;-64
2023/10/08 00:18:19;;;;;;;3.05;1.00;;;15.20;99.90;;;;;;5095933;27;20146;-64
2023/10/08 00:21:16;;;;;;;3.72;0.93;;;15.10;99.90;;;;;;5115222;27;20862;-64
2023/10/08 00:24:02;;;;;;;1.50;0.90;;;14.90;99.90;;;;;;5133490;27;20500;-63
2023/10/08 00:26:31;;;;;;;1.30;1.20;;;14.90;99.90;;;;;;5114896;27;20110;-63
2023/10/08 00:29:06;;;;;;;2.78;1.08;;;14.80;99.90;;;;;;5113948;27;20043;-63
2023/10/08 00:31:38;;;;;;;1.50;1.40;;;14.70;99.90;;;;;;5115197;27;20435;-63
2023/10/08 00:34:11;;;;;;;1.50;1.40;;;14.70;99.90;;;;;;5097973;27;20042;-63
2023/10/08 00:36:37;;;;;;;2.80;1.52;;;14.60;99.90;;;;;;5114552;27;20051;-64
2023/10/08 00:39:13;;;;;;;1.48;1.35;;;14.50;99.90;;;;;;5113088;27;20035;-63
2023/10/08 00:41:40;;;;;;;3.63;1.50;;;14.40;99.90;;;;;;5114601;27;20047;-63
2023/10/08 00:44:15;;;;;;;2.00;1.17;;;14.40;99.90;;;;;;5114648;27;20443;-63
2023/10/08 00:46:47;;;;;;;1.73;1.10;;;14.30;99.90;;;;;;5114516;27;20039;-63
2023/10/08 00:49:24;;;;;;;3.25;1.70;;;14.30;99.90;;;;;;5114652;27;20058;-63
2023/10/08 00:55:06;;;;;;;2.38;1.42;;;14.10;99.90;;;;;;5132903;27;20516;-63
2023/10/08 00:57:36;;;;;;;3.05;1.60;;;14.10;99.90;;;;;;5110208;27;20574;-64
2023/10/08 01:00:05;;;;;;;2.47;1.42;;;14.00;99.90;;;;;;5112890;27;20130;-64
2023/10/08 01:02:49;;;;;;;3.05;1.30;;;14.00;99.90;;;;;;5131602;27;20561;-63
2023/10/08 01:05:25;;;;;;;2.40;1.05;;;14.00;99.90;;;;;;5096854;27;20122;-64
2023/10/08 01:07:55;;;;;;;1.50;1.20;;;13.90;99.90;;;;;;5114197;27;20079;-63
2023/10/08 01:10:21;;;;;;;1.80;0.95;;;13.90;99.90;;;;;;5114479;27;20039;-63
2023/10/08 01:15:31;;;;;;;0.77;0.75;;;13.90;99.90;;;;;;5114281;27;20455;-63
2023/10/08 01:18:00;;;;;;;2.20;1.00;;;13.80;99.90;;;;;;5113920;27;20038;-63
2023/10/08 01:20:49;;;;;;;1.63;0.70;;;13.90;99.90;;;;;;5097002;27;20047;-64
2023/10/08 01:23:16;;;;;;;3.33;0.90;;;13.90;99.90;;;;;;5113886;27;20062;-65
2023/10/08 01:25:51;;;;;;;1.73;0.60;;;13.90;99.90;;;;;;5113971;27;20047;-63
2023/10/08 01:28:25;;;;;;;0.95;0.47;;;13.80;99.90;;;;;;5114262;27;20420;-63
2023/10/08 01:30:54;;;;;;;0.75;0.60;;;13.80;99.90;;;;;;5113492;27;20043;-64
2023/10/08 01:33:27;;;;;;;0.95;0.40;;;13.90;99.90;;;;;;5113564;27;20041;-62
2023/10/08 01:35:53;;;;;;;0.50;0.40;;;13.80;99.90;;;;;;5132012;27;20114;-63
2023/10/08 01:38:23;;;;;;;0.38;0.38;;;13.80;99.90;;;;;;5113785;27;20446;-64
2023/10/08 01:40:53;;;;;;;0.80;0.60;;;13.80;99.90;;;;;;5113661;27;20074;-63
2023/10/08 01:43:19;;;;;;;0.63;0.40;;;13.80;99.90;;;;;;5131622;27;20035;-64
2023/10/08 01:45:49;;;;;;;0.40;0.40;;;13.80;99.90;;;;;;5132011;27;20111;-64
2023/10/08 01:48:20;;;;;;;1.15;0.60;;;13.70;99.90;;;;;;5113484;27;20039;-63
2023/10/08 01:50:47;;;;;;;1.13;0.70;;;13.70;99.90;;;;;;5113727;27;20043;-63
2023/10/08 01:53:15;;;;;;;1.00;0.80;;;13.70;99.90;;;;;;5131259;27;20035;-63
2023/10/08 01:55:48;;;;;;;1.83;0.70;;;13.70;99.90;;;;;;5113129;27;20043;-64
2023/10/08 01:58:18;;;;;;;1.92;1.10;;;13.70;99.90;;;;;;5113144;27;20115;-63
2023/10/08 02:00:48;;;;;;;2.10;0.90;;;13.70;99.90;;;;;;5113227;27;20493;-64
2023/10/08 02:03:17;;;;;;;1.35;1.08;;;13.70;99.90;;;;;;5113092;27;20435;-63
2023/10/08 02:05:47;;;;;;;1.58;1.17;;;13.70;99.90;;;;;;5131435;27;20037;-63
2023/10/08 02:08:14;;;;;;;1.20;1.10;;;13.60;99.90;;;;;;5112723;27;20039;-63
2023/10/08 02:10:42;;;;;;;1.77;1.10;;;13.60;99.90;;;;;;5130696;27;20047;-63
2023/10/08 02:13:09;;;;;;;1.90;1.10;;;13.60;99.90;;;;;;5096058;27;20599;-64
2023/10/08 02:15:43;;;;;;;1.73;1.00;;;13.60;99.90;;;;;;5112837;27;20088;-63
2023/10/08 02:18:08;;;;;;;1.13;1.00;;;13.60;99.90;;;;;;5111964;27;20042;-64
2023/10/08 02:20:34;;;;;;;1.17;0.85;;;13.60;99.90;;;;;;5113358;27;20045;-63
2023/10/08 02:23:00;;;;;;;1.17;0.90;;;13.60;99.90;;;;;;5095106;28;20051;-63
2023/10/08 02:25:26;;;;;;;2.38;0.90;;;13.70;99.90;;;;;;5112316;27;20078;-64
2023/10/08 02:27:52;;;;;;;0.90;0.70;;;13.70;99.90;;;;;;5131802;27;20108;-64
2023/10/08 02:30:17;;;;;;;1.52;0.88;;;13.70;99.90;;;;;;5112690;28;20070;-64
2023/10/08 02:32:44;;;;;;;1.67;0.70;;;13.60;99.90;;;;;;5095372;27;20047;-64
2023/10/08 02:35:13;;;;;;;2.45;0.90;;;13.60;99.90;;;;;;5131071;28;20050;-63
2023/10/08 02:37:39;;;;;;;1.60;0.82;;;13.70;99.90;;;;;;5112624;28;20043;-63
2023/10/08 02:40:30;;;;;;;0.88;0.70;;;13.70;99.90;;;;;;5112683;28;20047;-63
2023/10/08 02:42:58;;;;;;;1.95;0.82;;;13.60;99.90;;;;;;5112309;28;20049;-63
2023/10/08 02:45:28;;;;;;;0.82;0.70;;;13.60;99.90;;;;;;5111817;28;20055;-63
2023/10/08 02:47:55;;;;;;;0.90;0.80;;;13.60;99.90;;;;;;5108399;28;20084;-63
2023/10/08 02:50:22;;;;;;;3.20;0.65;;;13.60;99.90;;;;;;5095592;28;20047;-64
2023/10/08 02:52:50;;;;;;;1.77;0.60;;;13.60;99.90;;;;;;5113024;28;20477;-63
2023/10/08 02:55:34;;;;;;;1.58;0.77;;;13.60;99.90;;;;;;5112421;28;20069;-64
2023/10/08 02:58:02;;;;;;;1.48;0.63;;;13.60;99.90;;;;;;5130820;28;20046;-64
2023/10/08 03:00:33;;;;;;;0.73;0.63;;;13.60;99.90;;;;;;5094252;28;20051;-63
2023/10/08 03:03:01;;;;;;;0.60;0.50;;;13.60;99.90;;;;;;5112950;28;20051;-63
2023/10/08 03:05:35;;;;;;;1.95;0.80;;;13.60;99.90;;;;;;5112328;28;20043;-63
2023/10/08 03:08:02;;;;;;;0.90;0.65;;;13.60;99.90;;;;;;5112470;28;20043;-63
2023/10/08 03:10:33;;;;;;;1.52;0.70;;;13.60;99.90;;;;;;5130336;28;20096;-63
2023/10/08 03:13:05;;;;;;;1.15;0.60;;;13.60;99.90;;;;;;5107567;28;20545;-63
2023/10/08 03:15:46;;;;;;;1.67;0.70;;;13.50;99.90;;;;;;5112128;28;20386;-63
2023/10/08 03:18:14;;;;;;;1.30;0.52;;;13.50;99.90;;;;;;5112709;28;20073;-63
2023/10/08 03:20:45;;;;;;;0.82;0.70;;;13.50;99.90;;;;;;5112857;27;20103;-63
2023/10/08 03:23:22;;;;;;;2.33;0.60;;;13.50;99.90;;;;;;5116682;27;20046;-63
2023/10/08 03:25:59;;;;;;;1.10;0.60;;;13.40;99.90;;;;;;5116187;27;20050;-63
2023/10/08 03:28:25;;;;;;;1.63;0.90;;;13.40;99.90;;;;;;5116244;27;20046;-64
2023/10/08 03:31:03;;;;;;;1.88;0.70;;;13.40;99.90;;;;;;5115933;27;20039;-64
2023/10/08 03:33:34;;;;;;;2.13;0.85;;;13.40;99.90;;;;;;5115709;27;20062;-63
2023/10/08 03:36:09;;;;;;;0.90;0.65;;;13.40;99.90;;;;;;5134511;27;20043;-63
2023/10/08 03:38:49;;;;;;;0.73;0.70;;;13.30;99.90;;;;;;5099144;27;20070;-64
2023/10/08 03:41:16;;;;;;;1.13;0.70;;;13.40;99.90;;;;;;5115334;27;20070;-63
2023/10/08 03:46:40;;;;;;;1.23;0.80;;;13.30;99.90;;;;;;5115901;27;20043;-64
2023/10/08 03:49:14;;;;;;;2.00;0.80;;;13.40;99.90;;;;;;5115811;27;20054;-63
2023/10/08 03:51:40;;;;;;;1.63;0.60;;;13.40;99.90;;;;;;5133785;27;20062;-64
2023/10/08 03:54:15;;;;;;;1.90;0.93;;;13.40;99.90;;;;;;5116135;27;20047;-63
2023/10/08 03:56:45;;;;;;;2.15;0.70;;;13.30;99.90;;;;;;5133854;27;20227;-64
2023/10/08 03:59:12;;;;;;;0.95;0.70;;;13.30;99.90;;;;;;5098944;27;20625;-63
2023/10/08 04:01:40;;;;;;;4.72;0.75;;;13.30;99.90;;;;;;5115041;27;20420;-63
2023/10/08 04:04:12;;;;;;;2.15;0.70;;;13.30;99.90;;;;;;5134047;27;20054;-63
2023/10/08 04:06:38;;;;;;;1.65;0.80;;;13.40;99.90;;;;;;5133731;27;20043;-63
2023/10/08 04:14:18;;;;;;;2.00;1.13;;;13.30;99.90;;;;;;5133533;27;20494;-63
2023/10/08 04:16:44;;;;;;;1.20;0.63;;;13.40;99.90;;;;;;5097813;27;20105;-64
2023/10/08 04:19:11;;;;;;;1.33;0.60;;;13.30;99.90;;;;;;5115502;27;20408;-63
2023/10/08 04:21:39;;;;;;;0.90;0.68;;;13.30;99.90;;;;;;5115221;27;20123;-63
2023/10/08 04:24:06;;;;;;;1.70;0.80;;;13.30;99.90;;;;;;5114725;27;20458;-64
2023/10/08 04:26:32;;;;;;;1.10;0.60;;;13.30;99.90;;;;;;5097681;27;20137;-63
2023/10/08 04:29:06;;;;;;;2.03;0.70;;;13.30;99.90;;;;;;5133680;27;20031;-63
2023/10/08 04:31:39;;;;;;;1.30;0.70;;;13.30;99.90;;;;;;5114947;27;20498;-64
2023/10/08 04:34:21;;;;;;;2.38;0.80;;;13.30;99.90;;;;;;5094213;27;20119;-63
2023/10/08 04:36:54;;;;;;;2.53;0.60;;;13.30;99.90;;;;;;5112787;27;20118;-63
2023/10/08 04:39:26;;;;;;;1.20;0.75;;;13.30;99.90;;;;;;5133618;27;20485;-64
2023/10/08 04:41:58;;;;;;;1.73;0.73;;;13.20;99.90;;;;;;5114839;27;20049;-64
2023/10/08 04:44:25;;;;;;;1.15;0.90;;;13.20;99.90;;;;;;5097777;27;20050;-63
2023/10/08 04:46:52;;;;;;;2.28;0.80;;;13.20;99.90;;;;;;5113892;27;20058;-62
2023/10/08 04:51:54;;;;;;;2.75;1.00;;;13.20;99.90;;;;;;5114548;27;20074;-63
2023/10/08 04:54:20;;;;;;;2.15;0.80;;;13.10;99.90;;;;;;5097589;27;20374;-63
2023/10/08 04:56:49;;;;;;;1.65;0.90;;;13.20;99.90;;;;;;5114320;27;20049;-63
2023/10/08 04:59:14;;;;;;;1.80;0.90;;;13.20;99.90;;;;;;5114334;27;20084;-64
2023/10/08 05:02:12;;;;;;;1.88;0.93;;;13.20;99.90;;;;;;5114914;27;20485;-63
2023/10/08 05:04:46;;;;;;;2.03;1.10;;;13.20;99.90;;;;;;5113937;27;20104;-63
2023/10/08 05:07:40;;;;;;;2.22;0.90;;;13.10;99.90;;;;;;5114250;27;20103;-63
2023/10/08 05:20:19;;;;;;;3.40;1.10;;;13.10;99.90;;;;;;5113758;27;20047;-63
2023/10/08 05:22:55;;;;;;;1.88;1.10;;;13.10;99.90;;;;;;5114147;27;20046;-63
2023/10/08 05:30:41;;;;;;;3.22;1.13;;;13.10;99.90;;;;;;5132135;27;20035;-64
2023/10/08 05:38:38;;;;;;;1.88;0.80;;;13.10;99.90;;;;;;5131752;27;20060;-64
2023/10/08 05:41:05;;;;;;;2.03;1.00;;;13.10;99.90;;;;;;5113518;27;20046;-64
2023/10/08 06:13:29;;;;;;;2.67;1.20;;;13.10;99.90;;;;;;5113168;27;20047;-65
2023/10/08 06:18:27;;;;;;;2.40;1.17;;;13.10;99.90;;;;;;5112740;27;20054;-64
2023/10/08 06:21:11;;;;;;;1.90;1.10;;;13.10;99.90;;;;;;5112800;28;20061;-65
2023/10/08 06:23:39;;;;;;;2.67;1.10;;;13.10;99.90;;;;;;5106086;27;20579;-64
2023/10/08 06:28:43;;;;;;;2.95;0.88;;;13.10;99.90;;;;;;5111893;27;20044;-66
2023/10/08 06:31:16;;;;;;;1.83;1.00;;;13.10;99.90;;;;;;5110881;27;20076;-65
2023/10/08 06:33:43;;;;;;;2.80;1.15;;;13.10;99.90;;;;;;5112079;27;20046;-65
2023/10/08 06:38:39;;;;;;;2.10;1.00;;;13.10;99.90;;;;;;5112575;28;20124;-65
2023/10/08 06:41:15;;;;;;;4.35;0.90;;;13.10;99.90;;;;;;5095125;28;20043;-65
2023/10/08 06:44:03;;;;;;;3.55;1.00;;;13.10;99.90;;;;;;5130961;28;20058;-65
2023/10/08 06:46:32;;;;;;;5.47;1.10;;;13.10;99.90;;;;;;5112421;28;21993;-66
2023/10/08 06:49:11;;;;;;;4.32;1.10;;;13.10;99.90;;;;;;5112940;28;20516;-65
2023/10/08 06:51:43;;;;;;;2.35;1.10;;;13.10;99.90;;;;;;5112270;28;20039;-66
2023/10/08 06:54:10;;;;;;;2.72;0.93;;;13.10;99.90;;;;;;5112416;28;20039;-65
2023/10/08 06:56:36;;;;;;;1.95;0.90;;;13.10;99.90;;;;;;5133276;27;20080;-66
2023/10/08 06:59:03;;;;;;;3.05;1.02;;;13.10;99.90;;;;;;5116898;27;20042;-65
2023/10/08 07:01:38;;;;;;;2.00;0.90;;;13.10;99.90;;;;;;5098929;27;20122;-67
2023/10/08 07:04:12;;;;;;;3.63;0.90;;;13.10;99.90;;;;;;5109896;27;20043;-65
2023/10/08 07:06:42;;;;;;;2.92;0.82;;;13.10;99.90;;;;;;5134511;27;20035;-65
2023/10/08 07:09:22;;;;;;;3.08;1.00;;;13.10;99.90;;;;;;5094906;27;20039;-64
2023/10/08 07:11:54;;;;;;;3.08;1.00;;;13.10;99.90;;;;;;5118634;27;20079;-66
2023/10/08 07:14:26;;;;;;;4.22;1.17;;;13.10;99.90;;;;;;5110819;27;20066;-65
2023/10/08 07:16:58;;;;;;;3.17;0.93;;;13.10;99.90;;;;;;5114360;27;20059;-66
2023/10/08 07:19:32;;;;;;;4.78;1.63;;;13.20;99.90;;;;;;5097332;27;20074;-64
2023/10/08 07:22:03;;;;;;;3.28;1.25;;;13.20;99.90;;;;;;5097854;27;20047;-67
2023/10/08 07:24:30;;;;;;;3.30;1.10;;;13.20;99.90;;;;;;5111382;27;20043;-65
2023/10/08 07:26:56;;;;;;;5.78;1.20;;;13.30;99.90;;;;;;5114038;27;20092;-66
2023/10/08 07:29:22;;;;;;;5.57;1.30;;;13.30;99.90;;;;;;5111317;27;20043;-64
2023/10/08 07:31:48;;;;;;;3.97;1.30;;;13.30;99.90;;;;;;5133825;27;20039;-65
2023/10/08 07:34:17;;;;;;;2.15;1.00;;;13.40;99.90;;;;;;5115868;27;20481;-67
2023/10/08 07:36:44;;;;;;;3.30;1.10;;;13.30;99.90;;;;;;5115089;27;20095;-65
2023/10/08 07:39:25;;;;;;;3.75;1.27;;;13.30;99.90;;;;;;5092339;27;20053;-68
2023/10/08 07:41:52;;;;;;;2.85;1.10;;;13.40;99.90;;;;;;5128691;27;20125;-64
2023/10/08 07:44:23;;;;;;;4.60;1.10;;;13.40;99.90;;;;;;5115328;27;20049;-63
2023/10/08 07:46:55;;;;;;;3.17;1.45;;;13.30;99.90;;;;;;5115420;27;20078;-68
2023/10/08 07:49:25;;;;;;;2.28;0.90;;;13.40;99.90;;;;;;5115442;27;20057;-67
2023/10/08 07:51:55;;;;;;;3.83;1.15;;;13.40;99.90;;;;;;5134022;27;20038;-67
2023/10/08 07:54:23;;;;;;;6.10;1.20;;;13.40;99.90;;;;;;5115641;27;20447;-65
2023/10/08 07:56:49;;;;;;;2.97;1.10;;;13.40;99.90;;;;;;5097376;27;20063;-66
2023/10/08 07:59:16;;;;;;;1.98;1.00;;;13.50;99.90;;;;;;5115643;27;20027;-67
2023/10/08 08:01:43;;;;;;;5.88;1.80;;;13.50;99.90;;;;;;5115001;27;20438;-66
2023/10/08 08:04:22;;;;;;;3.17;1.00;;;13.50;99.90;;;;;;5112821;27;20039;-66
2023/10/08 08:06:52;;;;;;;4.53;1.30;;;13.50;99.90;;;;;;5112587;27;20050;-64
2023/10/08 08:09:23;;;;;;;5.18;1.50;;;13.50;99.90;;;;;;5133738;27;20477;-66
2023/10/08 08:11:49;;;;;;;2.65;1.40;;;13.50;99.90;;;;;;5115058;27;20549;-65
2023/10/08 08:14:24;;;;;;;4.60;1.63;;;13.60;99.90;;;;;;5115068;27;20039;-66
2023/10/08 08:16:51;;;;;;;5.00;1.50;;;13.70;99.90;;;;;;5114976;27;20047;-68
2023/10/08 08:19:24;;;;;;;5.18;1.77;;;13.70;99.90;;;;;;5114642;27;20043;-66
2023/10/08 08:21:52;;;;;;;5.32;1.40;;;13.80;99.90;;;;;;5114798;27;20042;-65
2023/10/08 08:24:28;;;;;;;5.03;1.83;;;13.90;99.90;;;;;;5115162;27;20031;-65
2023/10/08 08:27:23;;;;;;;3.50;1.38;;;13.90;99.90;;;;;;5115084;27;20042;-65
2023/10/08 08:29:55;;;;;;;4.97;1.77;;;14.00;99.90;;;;;;5115064;27;20047;-65
2023/10/08 08:32:23;;;;;;;4.95;1.60;;;14.10;99.90;;;;;;5114945;27;20056;-66
2023/10/08 08:34:50;;;;;;;6.65;1.90;;;14.10;99.90;;;;;;5114816;27;20051;-66
2023/10/08 08:37:22;;;;;;;5.13;1.67;;;14.20;99.90;;;;;;5097519;27;20132;-67
2023/10/08 08:39:48;;;;;;;4.45;1.50;;;14.20;99.90;;;;;;5115174;27;20456;-67
2023/10/08 08:42:18;;;;;;;3.78;1.30;;;14.30;99.90;;;;;;5114209;27;20047;-65
2023/10/08 08:44:48;;;;;;;6.43;1.60;;;14.30;99.90;;;;;;5109611;27;20508;-65
2023/10/08 08:47:17;;;;;;;5.57;1.25;;;14.30;99.90;;;;;;5112349;27;20043;-65
2023/10/08 08:49:47;;;;;;;4.80;1.83;;;14.30;99.90;;;;;;5113217;27;20047;-67
2023/10/08 08:52:14;;;;;;;2.92;1.40;;;14.40;99.90;;;;;;5107993;27;20047;-65
2023/10/08 08:54:42;;;;;;;7.07;1.40;;;14.40;99.90;;;;;;5113796;27;20042;-67
2023/10/08 08:57:13;;;;;;;4.32;1.30;;;14.40;99.90;;;;;;5112842;27;20031;-66
2023/10/08 08:59:50;;;;;;;4.63;1.20;;;14.40;99.90;;;;;;5113004;27;20144;-66
2023/10/08 09:02:17;;;;;;;4.25;1.30;;;14.40;99.90;;;;;;5092565;27;20063;-64
2023/10/08 09:04:43;;;;;;;5.25;1.27;;;14.50;99.90;;;;;;5112416;27;20118;-66
2023/10/08 09:07:08;;;;;;;5.43;1.25;;;14.60;99.90;;;;;;5095059;27;20108;-65
2023/10/08 09:09:39;;;;;;;4.80;1.08;;;14.60;99.90;;;;;;5109114;27;20063;-66
2023/10/08 09:12:07;;;;;;;6.28;1.27;;;14.60;99.90;;;;;;5109312;27;20503;-65
2023/10/08 09:14:33;;;;;;;5.82;1.40;;;14.60;99.90;;;;;;5111273;27;20498;-65
2023/10/08 09:17:05;;;;;;;5.38;1.55;;;14.60;99.90;;;;;;5111985;27;20051;-66
2023/10/08 09:19:37;;;;;;;6.43;1.85;;;14.60;99.90;;;;;;5130663;27;20043;-66
2023/10/08 09:22:07;;;;;;;2.90;1.38;;;14.70;99.90;;;;;;5104838;27;20046;-67
2023/10/08 09:24:36;;;;;;;4.30;1.00;;;14.80;99.90;;;;;;5087720;27;20079;-66
2023/10/08 09:27:03;;;;;;;4.20;0.93;;;14.80;99.90;;;;;;5130029;27;20039;-65
2023/10/08 09:29:29;;;;;;;6.68;2.03;;;14.80;99.90;;;;;;5113138;27;20043;-64
2023/10/08 09:31:59;;;;;;;6.88;1.50;;;14.80;99.90;;;;;;5095649;27;20061;-66
2023/10/08 09:34:30;;;;;;;4.78;1.10;;;14.90;99.90;;;;;;5131199;27;20043;-66
2023/10/08 09:36:57;;;;;;;4.82;1.30;;;15.00;99.90;;;;;;5111861;27;20039;-67
2023/10/08 09:39:25;;;;;;;5.45;1.05;;;15.00;99.90;;;;;;5113556;27;20039;-63
2023/10/08 09:41:53;;;;;;;4.85;1.10;;;15.00;99.90;;;;;;5095052;27;20047;-65
2023/10/08 09:44:19;;;;;;;5.13;1.27;;;15.00;99.90;;;;;;5095113;27;20047;-64
2023/10/08 09:46:53;;;;;;;4.95;1.30;;;15.10;99.90;;;;;;5094539;27;20084;-64
2023/10/08 09:49:33;;;;;;;6.55;1.30;;;15.20;99.90;;;;;;5130375;27;20074;-65
2023/10/08 09:52:05;;;;;;;11.60;2.88;;;15.50;99.90;;;;;;5092141;27;20086;-65
2023/10/08 09:54:47;;;;;;;5.72;1.40;;;15.80;99.90;;;;;;5107149;27;20100;-64
2023/10/08 09:57:13;;;;;;;7.60;1.42;;;16.00;99.90;;;;;;5115311;27;20047;-63
2023/10/08 09:59:41;;;;;;;6.80;1.55;;;16.30;99.90;;;;;;5132823;27;20099;-64
2023/10/08 10:02:09;;;;;;;4.22;1.30;;;16.60;99.90;;;;;;5114369;27;20050;-63
2023/10/08 10:04:35;;;;;;;5.07;1.38;;;16.90;99.90;;;;;;5114881;27;20121;-64
2023/10/08 10:07:12;;;;;;;5.57;1.45;;;16.80;99.90;;;;;;5112976;27;20493;-65
2023/10/08 10:09:39;;;;;;;5.38;1.45;;;16.70;99.90;;;;;;5113066;27;20079;-64
2023/10/08 10:12:09;;;;;;;4.03;1.35;;;16.60;99.90;;;;;;5110770;27;20107;-65
2023/10/08 10:14:52;;;;;;;8.20;1.60;;;16.70;99.90;;;;;;5112853;27;20416;-65
2023/10/08 10:17:25;;;;;;;6.60;1.50;;;17.10;99.90;;;;;;5112746;27;20058;-65
2023/10/08 10:19:59;;;;;;;5.57;1.85;;;17.30;99.90;;;;;;5095886;27;20062;-66
2023/10/08 10:22:30;;;;;;;7.13;1.35;;;17.50;99.90;;;;;;5112873;27;20135;-65
2023/10/08 10:24:57;;;;;;;4.30;1.13;;;17.60;99.90;;;;;;5112796;27;20074;-65
2023/10/08 10:27:24;;;;;;;7.82;1.33;;;17.60;99.90;;;;;;5095926;27;20118;-65
2023/10/08 10:29:49;;;;;;;6.25;0.95;;;17.60;99.90;;;;;;5112472;28;20043;-65
2023/10/08 10:32:16;;;;;;;6.38;1.20;;;17.60;99.90;;;;;;5092641;27;20039;-64
2023/10/08 10:34:47;;;;;;;5.47;1.50;;;17.50;99.90;;;;;;5131495;27;20382;-66
2023/10/08 10:37:19;;;;;;;5.55;1.20;;;17.50;99.90;;;;;;5112720;28;20495;-65
2023/10/08 10:39:59;;;;;;;6.43;1.35;;;17.50;99.90;;;;;;5112764;28;20043;-63
2023/10/08 10:42:28;;;;;;;5.18;1.33;;;17.50;99.90;;;;;;5112233;28;20047;-64
2023/10/08 10:44:56;;;;;;;4.72;1.40;;;17.50;99.90;;;;;;5095350;28;20149;-65
2023/10/08 10:52:31;;;;;;;5.38;1.20;;;17.30;99.90;;;;;;5112433;28;20043;-63
2023/10/08 11:03:04;;;;;;;4.30;1.05;;;17.50;99.90;;;;;;5112238;28;20047;-64
2023/10/08 11:05:37;;;;;;;5.95;1.33;;;17.80;99.90;;;;;;5130508;28;20061;-62
2023/10/08 11:08:05;;;;;;;4.97;1.00;;;18.30;99.90;;;;;;5112525;28;20039;-66
2023/10/08 11:10:51;;;;;;;5.22;1.00;;;18.70;99.90;;;;;;5112063;28;20050;-64
2023/10/08 11:13:28;;;;;;;6.25;1.90;;;19.10;99.90;;;;;;5110896;28;20046;-64
2023/10/08 11:15:54;;;;;;;4.35;0.95;;;19.50;99.90;;;;;;5095871;28;20034;-65
2023/10/08 11:18:22;;;;;;;4.57;1.20;;;19.70;99.90;;;;;;5112034;28;20047;-65
2023/10/08 11:20:54;;;;;;;3.60;0.80;;;19.80;99.90;;;;;;5111545;28;20047;-63
2023/10/08 11:23:43;;;;;;;6.60;1.48;;;19.80;99.90;;;;;;5094528;28;20108;-64
2023/10/08 11:26:09;;;;;;;4.97;1.10;;;19.60;99.90;;;;;;5111988;28;20496;-63
2023/10/08 11:28:42;;;;;;;5.97;1.40;;;19.60;99.90;;;;;;5111456;28;20158;-64
2023/10/08 11:31:11;;;;;;;4.35;1.10;;;19.40;99.90;;;;;;5094347;28;20039;-65
2023/10/08 11:33:41;;;;;;;4.68;1.30;;;19.30;99.90;;;;;;5109243;28;20055;-64
2023/10/08 11:36:27;;;;;;;4.88;1.17;;;19.00;99.90;;;;;;5108957;28;20042;-64
2023/10/08 11:39:07;;;;;;;3.40;1.20;;;18.70;99.90;;;;;;5111402;28;20493;-64
2023/10/08 11:41:49;;;;;;;3.72;0.98;;;18.50;99.90;;;;;;5096069;27;20477;-64
2023/10/08 11:44:19;;;;;;;2.47;0.80;;;18.30;99.90;;;;;;5115771;27;20039;-63
2023/10/08 11:46:45;;;;;;;3.83;0.88;;;18.40;99.90;;;;;;5094260;27;20035;-66
2023/10/08 11:49:25;;;;;;;4.20;1.10;;;18.40;99.90;;;;;;5114012;27;20031;-65
2023/10/08 11:51:55;;;;;;;4.22;1.13;;;18.30;99.90;;;;;;5113686;27;20047;-64
2023/10/08 11:54:23;;;;;;;3.92;0.85;;;18.30;99.90;;;;;;5115660;27;20039;-64
2023/10/08 11:56:49;;;;;;;4.72;0.90;;;18.20;99.90;;;;;;5133205;27;20096;-64
2023/10/08 11:59:18;;;;;;;5.32;1.05;;;18.10;99.90;;;;;;5115137;27;20452;-65
2023/10/08 12:01:46;;;;;;;6.40;1.17;;;18.00;99.90;;;;;;5097875;27;20072;-64
2023/10/08 12:04:16;;;;;;;3.28;0.93;;;17.90;99.90;;;;;;5116006;27;20039;-64
2023/10/08 12:06:48;;;;;;;3.70;1.00;;;17.80;99.90;;;;;;5115648;27;20043;-66
2023/10/08 12:09:17;;;;;;;;;;;17.70;99.90;;;;;;5098571;27;20056;-65
2023/10/08 12:11:43;;;;;;;5.85;1.00;;;17.70;99.90;;;;;;5115110;27;19927;-64
2023/10/08 12:14:10;;;;;;;6.38;1.25;;;17.70;99.90;;;;;;5115506;27;20050;-66
2023/10/08 12:16:36;;;;;;;5.82;1.63;;;17.60;99.90;;;;;;5098150;27;20078;-64
2023/10/08 12:19:15;;;;;;;5.82;1.60;;;17.40;99.90;;;;;;5115146;27;20070;-64
2023/10/08 12:21:41;;;;;;;3.28;1.00;;;17.40;99.90;;;;;;5134118;27;20039;-63
2023/10/08 12:24:10;;;;;;;3.47;1.10;;;17.30;99.90;;;;;;5114912;27;20164;-67
2023/10/08 12:26:36;;;;;;;4.32;1.10;;;17.30;99.90;;;;;;5134079;27;20103;-65
2023/10/08 12:29:02;;;;;;;4.78;1.20;;;17.20;99.90;;;;;;5098284;27;20370;-65
2023/10/08 12:31:29;;;;;;;5.25;1.00;;;17.20;99.90;;;;;;5115332;27;20108;-64
2023/10/08 12:33:57;;;;;;;5.13;1.45;;;17.20;99.90;;;;;;5114650;27;20080;-64
2023/10/08 12:36:29;;;;;;;3.42;1.10;;;17.20;99.90;;;;;;5115812;27;20043;-64
2023/10/08 12:38:58;;;;;;;6.25;1.58;;;17.30;99.90;;;;;;5114868;27;20169;-65
2023/10/08 12:41:27;;;;;;;5.05;1.30;;;17.20;99.90;;;;;;5115465;27;20549;-65
2023/10/08 12:43:53;;;;;;;5.65;1.00;;;17.30;99.90;;;;;;5132829;27;20519;-64
2023/10/08 12:46:25;;;;;;;3.38;1.20;;;17.30;99.90;;;;;;5133207;27;20382;-66
2023/10/08 12:48:53;;;;;;;5.45;1.10;;;17.20;99.90;;;;;;5133302;27;20038;-66
2023/10/08 12:51:23;;;;;;;5.93;1.30;;;17.10;99.90;;;;;;5114907;27;20485;-64
2023/10/08 12:53:58;;;;;;;6.53;1.25;;;17.20;99.90;;;;;;5114099;27;20046;-64
2023/10/08 12:56:48;;;;;;;5.03;1.02;;;17.20;99.90;;;;;;5097432;27;20043;-66
2023/10/08 12:59:20;;;;;;;2.90;0.95;;;17.10;99.90;;;;;;5113929;27;20153;-64
2023/10/08 13:01:54;;;;;;;4.82;1.10;;;17.10;99.90;;;;;;5114853;27;20043;-64
2023/10/08 13:04:27;;;;;;;5.00;1.17;;;17.00;99.90;;;;;;5114994;27;20078;-66
2023/10/08 13:07:00;;;;;;;6.90;1.20;;;17.00;99.90;;;;;;5096961;27;20051;-66
2023/10/08 13:09:26;;;;;;;5.72;1.23;;;16.90;99.90;;;;;;5132953;27;20070;-65
2023/10/08 13:11:52;;;;;;;4.95;1.05;;;16.90;99.90;;;;;;5132976;27;20482;-65
2023/10/08 13:14:18;;;;;;;4.07;1.00;;;17.00;99.90;;;;;;5114314;27;20027;-66
2023/10/08 13:16:45;;;;;;;7.07;1.05;;;17.00;99.90;;;;;;5114155;27;20402;-66
2023/10/08 13:19:11;;;;;;;4.80;1.00;;;16.90;99.90;;;;;;5132671;27;20092;-65
2023/10/08 13:21:39;;;;;;;6.18;1.20;;;16.80;99.90;;;;;;5114074;27;20108;-64
2023/10/08 13:24:08;;;;;;;3.75;0.90;;;16.80;99.90;;;;;;5096608;27;20595;-66
2023/10/08 13:26:37;;;;;;;3.72;0.90;;;16.70;99.90;;;;;;5114326;27;20522;-65
2023/10/08 13:29:03;;;;;;;2.70;1.25;;;16.60;99.90;;;;;;5113913;27;20062;-66
2023/10/08 13:31:29;;;;;;;4.45;1.02;;;16.50;99.90;;;;;;5114192;27;20039;-64
2023/10/08 13:33:57;;;;;;;5.10;1.20;;;16.50;99.90;;;;;;5114136;27;20035;-64
2023/10/08 13:36:23;;;;;;;4.45;1.00;;;16.50;99.90;;;;;;5113334;27;20047;-65
2023/10/08 13:38:50;;;;;;;4.63;1.10;;;16.50;99.90;;;;;;5113672;27;20452;-65
2023/10/08 13:41:16;;;;;;;3.72;0.95;;;16.50;99.90;;;;;;5113761;27;20566;-67
2023/10/08 13:43:46;;;;;;;5.32;1.08;;;16.60;99.90;;;;;;5114155;27;20392;-67
2023/10/08 13:46:17;;;;;;;3.47;0.80;;;16.50;99.90;;;;;;5113899;27;20465;-66
2023/10/08 13:48:48;;;;;;;5.85;1.30;;;16.60;99.90;;;;;;5113647;27;20043;-66
2023/10/08 13:51:20;;;;;;;5.22;1.23;;;16.60;99.90;;;;;;5113636;27;20069;-67
2023/10/08 13:53:52;;;;;;;3.80;1.10;;;16.60;99.90;;;;;;5113989;27;20050;-65
2023/10/08 13:56:24;;;;;;;7.57;2.08;;;16.60;99.90;;;;;;5113994;27;20116;-64
2023/10/08 13:58:51;;;;;;;5.35;1.27;;;16.50;99.90;;;;;;5113551;27;20043;-65
2023/10/08 14:01:20;;;;;;;8.02;1.65;;;16.50;99.90;;;;;;5095904;27;20134;-65
2023/10/08 14:03:53;;;;;;;3.88;1.52;;;16.40;99.90;;;;;;5114042;27;20478;-66
2023/10/08 14:06:20;;;;;;;5.65;1.00;;;16.40;99.90;;;;;;5113392;27;20054;-64
2023/10/08 14:08:55;;;;;;;3.08;0.90;;;16.40;99.90;;;;;;5114004;27;20080;-67
2023/10/08 14:11:29;;;;;;;5.43;1.10;;;16.40;99.90;;;;;;5112836;27;20076;-65
2023/10/08 14:14:02;;;;;;;5.28;1.10;;;16.50;99.90;;;;;;5113499;27;20043;-66
2023/10/08 14:16:28;;;;;;;;;;;16.50;99.90;;;;;;5113461;27;20063;-67
2023/10/08 14:18:59;;;;;;;3.17;0.95;;;16.60;99.90;;;;;;5131964;27;20423;-66
2023/10/08 14:21:30;;;;;;;8.57;1.20;;;16.60;99.90;;;;;;5094863;27;20055;-66
2023/10/08 14:24:03;;;;;;;4.00;0.88;;;16.60;99.90;;;;;;5113254;27;20079;-67
2023/10/08 14:26:36;;;;;;;4.38;1.17;;;16.60;99.90;;;;;;5112908;27;20121;-64
2023/10/08 14:29:10;;;;;;;4.28;1.17;;;16.60;99.90;;;;;;5113050;27;20034;-65
2023/10/08 14:31:38;;;;;;;5.28;1.20;;;16.50;99.90;;;;;;5112101;27;20082;-66
2023/10/08 14:34:05;;;;;;;4.30;1.10;;;16.50;99.90;;;;;;5131504;27;20062;-64